Time;durP1;ratioP1;P1;durP2;ratioP2;P2;SDS_P1;SDS_P2;PMS_P1;PMS_P2;Temp;Humidity;BMP_temperature;BMP_pressure;BME280_temperature;BME280_humidity;BME280_pressure;Samples;Min_cycle;Max_cycle;Signal;HPM_P1;HPM_P2
2021/04/07 00:00:22;;;;;;;13.13;11.37;;;0.30;99.90;;;;;;5035089;28;20419;-63
2021/04/07 00:02:49;;;;;;;14.63;12.77;;;0.20;99.90;;;;;;5034588;28;20487;-63
2021/04/07 00:05:18;;;;;;;13.77;12.40;;;0.20;99.90;;;;;;5034968;28;20913;-63
2021/04/07 00:07:44;;;;;;;14.70;13.10;;;0.20;99.90;;;;;;5035038;28;20450;-62
2021/04/07 00:10:14;;;;;;;20.13;13.97;;;0.20;99.90;;;;;;5034857;28;20415;-62
2021/04/07 00:12:41;;;;;;;16.53;14.17;;;0.30;99.90;;;;;;5034609;28;20851;-62
2021/04/07 00:15:10;;;;;;;17.93;14.00;;;0.30;99.90;;;;;;5034649;28;20415;-63
2021/04/07 00:17:36;;;;;;;17.70;14.23;;;0.40;99.90;;;;;;5034527;28;20933;-63
2021/04/07 00:20:06;;;;;;;15.27;13.50;;;0.40;99.90;;;;;;5034485;28;20453;-63
2021/04/07 00:22:32;;;;;;;21.20;16.67;;;0.40;99.90;;;;;;5034342;28;20452;-63
2021/04/07 00:24:59;;;;;;;17.03;15.30;;;0.40;99.90;;;;;;5034304;28;20441;-63
2021/04/07 00:27:27;;;;;;;21.50;16.47;;;0.40;99.90;;;;;;5034353;28;20439;-63
2021/04/07 00:29:54;;;;;;;17.80;16.00;;;0.40;99.90;;;;;;5034061;28;20518;-63
2021/04/07 00:32:20;;;;;;;23.47;16.50;;;0.30;99.90;;;;;;5034030;28;20419;-63
2021/04/07 00:34:46;;;;;;;24.50;16.40;;;0.30;99.90;;;;;;5034027;28;20416;-63
2021/04/07 00:37:13;;;;;;;19.17;17.30;;;0.30;99.90;;;;;;5034112;28;21135;-61
2021/04/07 00:39:40;;;;;;;20.07;16.67;;;0.30;99.90;;;;;;5034226;28;20441;-63
2021/04/07 00:42:06;;;;;;;23.33;18.40;;;0.20;99.90;;;;;;5034037;28;20803;-63
2021/04/07 00:44:34;;;;;;;17.73;15.93;;;0.20;99.90;;;;;;5033787;28;20432;-63
2021/04/07 00:47:00;;;;;;;20.27;16.90;;;0.20;99.90;;;;;;5033869;28;20476;-63
2021/04/07 00:49:27;;;;;;;21.37;15.47;;;0.20;99.90;;;;;;5034038;28;20452;-63
2021/04/07 00:51:54;;;;;;;17.13;15.30;;;0.20;99.90;;;;;;5033954;28;20412;-63
2021/04/07 00:54:21;;;;;;;19.20;15.63;;;0.20;99.90;;;;;;5033707;28;20449;-63
2021/04/07 00:56:48;;;;;;;16.30;14.80;;;0.20;99.90;;;;;;5034029;28;20449;-62
2021/04/07 00:59:16;;;;;;;18.70;16.27;;;0.20;99.90;;;;;;5033784;28;20451;-62
2021/04/07 01:01:44;;;;;;;16.43;14.47;;;0.20;99.90;;;;;;5033665;28;21007;-61
2021/04/07 01:04:11;;;;;;;15.23;12.90;;;0.20;99.90;;;;;;5033453;28;20445;-63
2021/04/07 01:06:40;;;;;;;15.83;13.83;;;0.30;99.90;;;;;;5033648;28;20932;-63
2021/04/07 01:09:06;;;;;;;16.43;13.50;;;0.30;99.90;;;;;;5033633;28;20449;-62
2021/04/07 01:11:33;;;;;;;15.57;13.93;;;0.30;99.90;;;;;;5033639;28;20412;-62
2021/04/07 01:13:59;;;;;;;15.60;14.00;;;0.30;99.90;;;;;;5033368;28;20963;-62
2021/04/07 01:16:25;;;;;;;16.30;13.53;;;0.30;99.90;;;;;;5033324;28;20441;-63
2021/04/07 01:18:52;;;;;;;16.53;14.03;;;0.40;99.90;;;;;;5033541;28;20473;-63
2021/04/07 01:21:19;;;;;;;14.30;13.10;;;0.40;99.90;;;;;;5033277;28;20823;-63
2021/04/07 01:23:47;;;;;;;16.67;14.07;;;0.40;99.90;;;;;;5033155;28;20420;-62
2021/04/07 01:26:13;;;;;;;12.93;11.73;;;0.50;99.90;;;;;;5033220;28;20448;-63
2021/04/07 01:28:40;;;;;;;13.33;11.97;;;0.50;99.90;;;;;;5033179;28;20451;-63
2021/04/07 01:31:07;;;;;;;13.87;11.73;;;0.50;99.90;;;;;;5033117;28;20415;-63
2021/04/07 01:33:33;;;;;;;11.67;10.57;;;0.50;99.90;;;;;;5032897;28;20973;-63
2021/04/07 01:35:59;;;;;;;11.43;10.53;;;0.50;99.90;;;;;;5033113;28;20445;-63
2021/04/07 01:38:26;;;;;;;12.00;10.63;;;0.60;99.90;;;;;;5033047;28;20435;-63
2021/04/07 01:40:55;;;;;;;12.00;11.00;;;0.60;99.90;;;;;;5032981;28;20424;-63
2021/04/07 01:43:23;;;;;;;11.53;10.43;;;0.60;99.90;;;;;;5032234;28;20977;-63
2021/04/07 01:45:50;;;;;;;12.33;11.17;;;0.60;99.90;;;;;;5032850;28;20938;-63
2021/04/07 01:48:17;;;;;;;13.23;12.07;;;0.60;99.90;;;;;;5032819;28;20840;-62
2021/04/07 01:50:45;;;;;;;13.83;12.73;;;0.70;99.90;;;;;;5032842;28;20438;-62
2021/04/07 01:53:12;;;;;;;15.23;13.20;;;0.70;99.90;;;;;;5032543;28;20426;-62
2021/04/07 01:55:39;;;;;;;13.40;12.20;;;0.60;99.90;;;;;;5032713;28;20502;-63
2021/04/07 01:58:07;;;;;;;15.43;12.40;;;0.70;99.90;;;;;;5032791;28;20991;-63
2021/04/07 02:00:33;;;;;;;15.70;11.33;;;0.70;99.90;;;;;;5032586;28;20431;-63
2021/04/07 02:03:01;;;;;;;14.07;12.37;;;0.70;99.90;;;;;;5032537;28;20517;-63
2021/04/07 02:05:27;;;;;;;12.37;11.40;;;0.70;99.90;;;;;;5032504;28;20420;-63
2021/04/07 02:07:53;;;;;;;13.67;12.37;;;0.70;99.90;;;;;;5032506;28;20499;-63
2021/04/07 02:10:19;;;;;;;15.13;12.00;;;0.70;99.90;;;;;;5032525;28;20799;-63
2021/04/07 02:12:50;;;;;;;12.53;11.63;;;0.70;99.90;;;;;;5032159;28;20412;-63
2021/04/07 02:15:18;;;;;;;13.20;11.93;;;0.70;99.90;;;;;;5032320;28;20507;-63
2021/04/07 02:17:46;;;;;;;13.70;12.50;;;0.70;99.90;;;;;;5032201;28;20440;-63
2021/04/07 02:20:13;;;;;;;12.80;11.50;;;0.70;99.90;;;;;;5032370;28;20424;-63
2021/04/07 02:22:40;;;;;;;13.23;12.10;;;0.70;99.90;;;;;;5032117;28;20839;-63
2021/04/07 02:25:08;;;;;;;15.20;12.27;;;0.70;99.90;;;;;;5032229;28;20441;-63
2021/04/07 02:27:35;;;;;;;13.70;12.50;;;0.70;99.90;;;;;;5032190;28;20512;-63
2021/04/07 02:30:04;;;;;;;13.40;12.27;;;0.70;99.90;;;;;;5032074;28;20441;-63
2021/04/07 02:32:31;;;;;;;15.87;12.53;;;0.70;99.90;;;;;;5032285;28;20416;-63
2021/04/07 02:34:57;;;;;;;14.33;13.17;;;0.70;99.90;;;;;;5031980;28;20449;-61
2021/04/07 02:37:24;;;;;;;16.00;14.23;;;0.70;99.90;;;;;;5032095;28;20502;-63
2021/04/07 02:39:50;;;;;;;15.77;14.53;;;0.70;99.90;;;;;;5032238;28;20415;-63
2021/04/07 02:42:18;;;;;;;16.07;14.70;;;0.70;99.90;;;;;;5032190;28;20857;-62
2021/04/07 02:44:44;;;;;;;17.60;15.50;;;0.70;99.90;;;;;;5031852;28;20456;-61
2021/04/07 02:47:11;;;;;;;16.60;15.30;;;0.70;99.90;;;;;;5031918;28;20448;-63
2021/04/07 02:49:38;;;;;;;17.60;15.67;;;0.70;99.90;;;;;;5031995;28;20452;-60
2021/04/07 02:52:05;;;;;;;17.17;15.73;;;0.70;99.90;;;;;;5032021;28;20408;-62
2021/04/07 02:54:32;;;;;;;16.70;15.00;;;0.70;99.90;;;;;;5031022;28;20433;-63
2021/04/07 02:56:58;;;;;;;18.37;16.53;;;0.70;99.90;;;;;;5031432;28;20470;-63
2021/04/07 02:59:25;;;;;;;16.67;14.70;;;0.70;99.90;;;;;;5031991;28;20452;-62
2021/04/07 03:01:51;;;;;;;18.80;16.83;;;0.70;99.90;;;;;;5031918;28;20460;-61
2021/04/07 03:04:17;;;;;;;18.57;16.80;;;0.70;99.90;;;;;;5031662;28;20443;-63
2021/04/07 03:06:44;;;;;;;18.40;16.57;;;0.70;99.90;;;;;;5031850;28;20952;-62
2021/04/07 03:09:11;;;;;;;19.07;17.07;;;0.70;99.90;;;;;;5031909;28;20503;-62
2021/04/07 03:11:37;;;;;;;18.30;16.53;;;0.70;99.90;;;;;;5031790;28;20443;-63
2021/04/07 03:14:04;;;;;;;19.83;17.60;;;0.80;99.90;;;;;;5031381;28;20493;-63
2021/04/07 03:16:30;;;;;;;20.20;18.50;;;0.80;99.90;;;;;;5031465;28;20419;-63
2021/04/07 03:18:57;;;;;;;18.90;17.10;;;0.80;99.90;;;;;;5031587;28;20462;-62
2021/04/07 03:21:23;;;;;;;21.30;18.70;;;0.80;99.90;;;;;;5031400;28;20449;-63
2021/04/07 03:23:50;;;;;;;21.03;19.13;;;0.80;99.90;;;;;;5031106;28;20445;-63
2021/04/07 03:26:16;;;;;;;20.77;18.50;;;0.80;99.90;;;;;;5031463;28;20416;-63
2021/04/07 03:28:42;;;;;;;20.23;18.43;;;0.80;99.90;;;;;;5031410;28;20853;-64
2021/04/07 03:31:08;;;;;;;19.83;17.73;;;0.90;99.90;;;;;;5031430;28;20441;-63
2021/04/07 03:33:35;;;;;;;18.97;17.17;;;0.90;99.90;;;;;;5031166;28;20420;-61
2021/04/07 03:36:03;;;;;;;19.37;17.67;;;0.90;99.90;;;;;;5031436;28;20557;-61
2021/04/07 03:38:29;;;;;;;19.50;17.80;;;0.90;99.90;;;;;;5031352;28;20465;-63
2021/04/07 03:40:56;;;;;;;20.80;18.80;;;0.90;99.90;;;;;;5031335;28;20429;-62
2021/04/07 03:43:24;;;;;;;20.60;17.33;;;0.80;99.90;;;;;;5031030;28;21334;-63
2021/04/07 03:45:52;;;;;;;19.17;17.30;;;0.90;99.90;;;;;;5031591;28;20865;-62
2021/04/07 03:48:21;;;;;;;18.73;16.47;;;0.90;99.90;;;;;;5031108;28;20448;-63
2021/04/07 03:50:48;;;;;;;21.67;16.37;;;0.90;99.90;;;;;;5031311;28;20453;-64
2021/04/07 03:53:15;;;;;;;17.97;16.47;;;0.90;99.90;;;;;;5030991;28;20814;-63
2021/04/07 03:55:44;;;;;;;20.57;18.50;;;0.90;99.90;;;;;;5031120;28;20482;-65
2021/04/07 03:58:11;;;;;;;17.80;16.27;;;0.90;99.90;;;;;;5031042;28;20521;-64
2021/04/07 04:00:37;;;;;;;18.17;16.50;;;0.90;99.90;;;;;;5031143;28;20445;-64
2021/04/07 04:03:04;;;;;;;20.80;18.83;;;0.90;99.90;;;;;;5030700;28;20487;-65
2021/04/07 04:05:30;;;;;;;20.27;17.93;;;1.00;99.90;;;;;;5031151;28;20445;-62
2021/04/07 04:07:56;;;;;;;19.27;17.37;;;1.00;99.90;;;;;;5034111;28;20494;-64
2021/04/07 04:10:23;;;;;;;19.83;17.97;;;1.00;99.90;;;;;;5034680;28;20452;-64
2021/04/07 04:12:49;;;;;;;19.80;18.00;;;1.00;99.90;;;;;;5034463;28;20444;-65
2021/04/07 04:15:17;;;;;;;18.63;16.60;;;1.00;99.90;;;;;;5034543;28;20427;-65
2021/04/07 04:17:44;;;;;;;19.67;17.83;;;1.00;99.90;;;;;;5034590;28;20952;-65
2021/04/07 04:20:11;;;;;;;20.60;18.77;;;1.10;99.90;;;;;;5034491;28;20524;-64
2021/04/07 04:22:38;;;;;;;20.00;17.80;;;1.10;99.90;;;;;;5034649;28;20536;-64
2021/04/07 04:25:06;;;;;;;20.27;18.17;;;1.10;99.90;;;;;;5034464;28;20456;-63
2021/04/07 04:27:32;;;;;;;19.90;18.10;;;1.10;99.90;;;;;;5034536;28;20446;-64
2021/04/07 04:29:58;;;;;;;18.13;16.63;;;1.10;99.90;;;;;;5034361;28;20442;-64
2021/04/07 04:32:25;;;;;;;19.07;16.93;;;1.10;99.90;;;;;;5034536;28;20819;-64
2021/04/07 04:34:51;;;;;;;18.03;16.53;;;1.10;99.90;;;;;;5034008;28;20423;-64
2021/04/07 04:37:18;;;;;;;20.90;19.20;;;1.10;99.90;;;;;;5034305;28;20439;-64
2021/04/07 04:39:44;;;;;;;20.17;18.40;;;1.10;99.90;;;;;;5034065;28;20809;-64
2021/04/07 04:42:10;;;;;;;17.80;16.10;;;1.10;99.90;;;;;;5033953;28;20476;-64
2021/04/07 04:44:36;;;;;;;17.50;15.90;;;1.10;99.90;;;;;;5033827;28;20424;-64
2021/04/07 04:47:03;;;;;;;19.53;17.73;;;1.00;99.90;;;;;;5033885;28;20793;-64
2021/04/07 04:49:30;;;;;;;18.77;16.90;;;1.10;99.90;;;;;;5033973;28;20416;-63
2021/04/07 04:51:56;;;;;;;21.27;19.17;;;1.00;99.90;;;;;;5033964;28;20444;-64
2021/04/07 04:54:22;;;;;;;19.77;17.87;;;1.00;99.90;;;;;;5033512;28;20420;-64
2021/04/07 04:56:48;;;;;;;20.83;18.80;;;1.00;99.90;;;;;;5033647;28;20419;-63
2021/04/07 04:59:14;;;;;;;19.73;17.60;;;1.10;99.90;;;;;;5032871;28;20441;-64
2021/04/07 05:01:41;;;;;;;19.27;17.67;;;1.10;99.90;;;;;;5032673;28;20496;-64
2021/04/07 05:04:07;;;;;;;19.67;17.97;;;1.10;99.90;;;;;;5033280;28;20865;-64
2021/04/07 05:06:34;;;;;;;19.97;18.00;;;1.10;99.90;;;;;;5032741;28;20427;-64
2021/04/07 05:09:01;;;;;;;22.70;19.77;;;1.10;99.90;;;;;;5033429;28;20472;-64
2021/04/07 05:11:27;;;;;;;17.67;15.87;;;1.10;99.90;;;;;;5033327;28;20419;-64
2021/04/07 05:13:53;;;;;;;20.00;18.17;;;1.10;99.90;;;;;;5033261;28;20902;-62
2021/04/07 05:16:19;;;;;;;24.10;21.50;;;1.10;99.90;;;;;;5033381;28;20428;-63
2021/04/07 05:18:45;;;;;;;21.60;19.50;;;1.10;99.90;;;;;;5032284;28;20474;-64
2021/04/07 05:21:12;;;;;;;20.47;18.40;;;1.20;99.90;;;;;;5033171;28;20419;-64
2021/04/07 05:23:39;;;;;;;21.90;19.70;;;1.20;99.90;;;;;;5032991;28;20488;-64
2021/04/07 05:26:05;;;;;;;25.73;19.83;;;1.20;99.90;;;;;;5033031;28;20502;-64
2021/04/07 05:28:31;;;;;;;20.07;18.07;;;1.20;99.90;;;;;;5032950;28;20477;-64
2021/04/07 05:31:01;;;;;;;19.73;17.90;;;1.20;99.90;;;;;;5033096;28;20427;-65
2021/04/07 05:33:29;;;;;;;25.07;19.23;;;1.30;99.90;;;;;;5032788;28;20906;-65
2021/04/07 05:35:56;;;;;;;20.23;18.40;;;1.20;99.90;;;;;;5032962;28;20443;-66
2021/04/07 05:38:23;;;;;;;20.07;18.33;;;1.20;99.90;;;;;;5032871;28;20576;-64
2021/04/07 05:40:50;;;;;;;21.37;17.10;;;1.20;99.90;;;;;;5033239;28;20540;-65
2021/04/07 05:43:16;;;;;;;18.87;17.10;;;1.20;99.90;;;;;;5033343;28;20484;-65
2021/04/07 05:45:42;;;;;;;18.87;16.87;;;1.20;99.90;;;;;;5033510;28;20947;-65
2021/04/07 05:48:09;;;;;;;16.63;14.80;;;1.20;99.90;;;;;;5033175;28;20484;-64
2021/04/07 05:50:37;;;;;;;16.00;13.93;;;1.30;99.90;;;;;;5032659;28;20951;-65
2021/04/07 05:53:03;;;;;;;17.13;15.37;;;1.30;99.90;;;;;;5032394;28;20441;-64
2021/04/07 05:55:29;;;;;;;15.13;13.57;;;1.30;99.90;;;;;;5032477;28;20470;-64
2021/04/07 05:58:02;;;;;;;16.57;14.97;;;1.30;99.90;;;;;;5032429;28;20440;-64
2021/04/07 06:00:28;;;;;;;16.67;15.17;;;1.30;99.90;;;;;;5032537;28;20445;-64
2021/04/07 06:02:55;;;;;;;16.17;14.67;;;1.30;99.90;;;;;;5032181;28;20476;-64
2021/04/07 06:05:22;;;;;;;23.50;15.60;;;1.30;99.90;;;;;;5032367;28;20441;-65
2021/04/07 06:07:48;;;;;;;17.50;15.87;;;1.30;99.90;;;;;;5033258;28;20881;-65
2021/04/07 06:10:15;;;;;;;14.90;13.60;;;1.30;99.90;;;;;;5033090;28;20874;-65
2021/04/07 06:12:41;;;;;;;18.40;16.50;;;1.30;99.90;;;;;;5032777;28;20470;-64
2021/04/07 06:15:10;;;;;;;27.60;16.67;;;1.20;99.90;;;;;;5032865;28;20866;-65
2021/04/07 06:17:37;;;;;;;15.80;12.50;;;1.20;99.90;;;;;;5032482;28;20782;-66
2021/04/07 06:20:06;;;;;;;18.53;14.57;;;1.20;99.90;;;;;;5032695;28;20457;-65
2021/04/07 06:22:32;;;;;;;13.70;12.33;;;1.10;99.90;;;;;;5032524;28;20517;-65
2021/04/07 06:24:58;;;;;;;14.17;11.67;;;1.10;99.90;;;;;;5032140;28;20813;-66
2021/04/07 06:27:25;;;;;;;18.37;13.97;;;1.10;99.90;;;;;;5032199;28;20562;-64
2021/04/07 06:29:51;;;;;;;18.00;13.50;;;1.10;99.90;;;;;;5032060;28;20933;-63
2021/04/07 06:32:18;;;;;;;15.73;14.23;;;1.20;99.90;;;;;;5032236;28;20495;-65
2021/04/07 06:34:44;;;;;;;16.03;13.70;;;1.20;99.90;;;;;;5031582;28;20423;-65
2021/04/07 06:37:12;;;;;;;26.60;18.13;;;1.20;99.90;;;;;;5031961;28;20993;-66
2021/04/07 06:39:38;;;;;;;21.90;16.67;;;1.30;99.90;;;;;;5032192;28;20438;-66
2021/04/07 06:42:06;;;;;;;20.27;15.17;;;1.30;99.90;;;;;;5031691;28;20480;-66
2021/04/07 06:44:32;;;;;;;20.03;15.37;;;1.40;99.90;;;;;;5031691;28;20448;-65
2021/04/07 06:46:58;;;;;;;20.27;18.23;;;1.40;99.90;;;;;;5031572;28;20468;-66
2021/04/07 06:49:26;;;;;;;18.13;14.83;;;1.40;99.90;;;;;;5032545;28;20976;-64
2021/04/07 06:51:57;;;;;;;19.60;17.30;;;1.50;99.90;;;;;;5031562;28;20441;-65
2021/04/07 06:54:26;;;;;;;20.23;15.90;;;1.50;99.90;;;;;;5031543;28;20449;-64
2021/04/07 06:56:53;;;;;;;17.70;15.77;;;1.50;99.90;;;;;;5031579;28;20919;-65
2021/04/07 06:59:19;;;;;;;17.47;15.60;;;1.60;99.90;;;;;;5031597;28;20935;-65
2021/04/07 07:01:45;;;;;;;22.83;15.23;;;1.60;99.90;;;;;;5031377;28;20449;-65
2021/04/07 07:04:11;;;;;;;16.87;15.17;;;1.70;99.90;;;;;;5031232;28;20498;-65
2021/04/07 07:06:38;;;;;;;15.90;14.60;;;1.70;99.90;;;;;;5031443;28;20427;-65
2021/04/07 07:09:17;;;;;;;17.13;15.43;;;1.80;99.90;;;;;;5031434;28;20469;-65
2021/04/07 07:11:44;;;;;;;15.57;14.27;;;1.80;99.90;;;;;;5031627;28;20845;-65
2021/04/07 07:14:12;;;;;;;15.90;14.20;;;1.90;99.90;;;;;;5031359;28;20445;-65
2021/04/07 07:16:43;;;;;;;13.07;11.00;;;1.90;99.90;;;;;;5031978;28;20472;-66
2021/04/07 07:19:19;;;;;;;11.93;8.90;;;1.90;99.90;;;;;;5032533;28;20520;-66
2021/04/07 07:21:50;;;;;;;9.33;8.53;;;1.90;99.90;;;;;;5032326;28;20445;-66
2021/04/07 07:24:29;;;;;;;11.00;9.90;;;2.20;99.90;;;;;;5032614;28;20449;-66
2021/04/07 07:26:55;;;;;;;13.53;10.10;;;2.20;99.90;;;;;;5032791;28;20445;-66
2021/04/07 07:29:26;;;;;;;16.33;10.23;;;2.10;99.90;;;;;;5032058;28;20437;-65
2021/04/07 07:32:00;;;;;;;11.53;10.33;;;1.90;99.90;;;;;;5031150;28;20437;-65
2021/04/07 07:34:27;;;;;;;10.17;7.50;;;1.80;99.90;;;;;;5031880;28;20445;-66
2021/04/07 07:36:55;;;;;;;15.60;9.00;;;1.80;99.90;;;;;;5033520;28;20906;-66
2021/04/07 07:39:26;;;;;;;15.53;8.70;;;1.80;99.90;;;;;;5032841;28;20453;-66
2021/04/07 07:41:56;;;;;;;9.17;7.00;;;1.70;99.90;;;;;;5033963;28;20832;-66
2021/04/07 07:44:23;;;;;;;8.80;8.00;;;1.80;99.90;;;;;;5035603;28;20449;-66
2021/04/07 07:46:56;;;;;;;9.20;8.03;;;1.90;99.90;;;;;;5035148;28;20451;-66
2021/04/07 07:49:23;;;;;;;11.13;8.30;;;2.00;99.90;;;;;;5035121;28;20479;-66
2021/04/07 07:51:50;;;;;;;12.37;9.27;;;2.00;99.90;;;;;;5035027;28;20456;-65
2021/04/07 07:54:19;;;;;;;11.30;8.20;;;2.00;99.90;;;;;;5034693;28;20445;-65
2021/04/07 07:56:47;;;;;;;10.57;9.50;;;2.10;99.90;;;;;;5034701;28;20928;-64
2021/04/07 07:59:24;;;;;;;7.13;6.53;;;2.20;99.90;;;;;;5034836;28;20452;-65
2021/04/07 08:01:50;;;;;;;9.13;8.40;;;2.20;99.90;;;;;;5034573;28;20510;-65
2021/04/07 08:04:17;;;;;;;11.23;9.07;;;2.30;99.90;;;;;;5034432;28;20477;-64
2021/04/07 08:06:44;;;;;;;11.57;9.87;;;2.30;99.90;;;;;;5034559;28;20449;-65
2021/04/07 08:09:10;;;;;;;10.57;9.47;;;2.50;99.90;;;;;;5034557;28;20484;-66
2021/04/07 08:11:38;;;;;;;11.23;10.43;;;2.50;99.90;;;;;;5034563;28;20481;-66
2021/04/07 08:14:04;;;;;;;11.20;10.33;;;2.50;99.90;;;;;;5034566;28;20522;-66
2021/04/07 08:16:32;;;;;;;11.63;10.83;;;2.50;99.90;;;;;;5034389;28;20448;-65
2021/04/07 08:18:59;;;;;;;10.57;9.80;;;2.40;99.90;;;;;;5034576;28;20465;-66
2021/04/07 08:21:26;;;;;;;12.07;11.30;;;2.50;99.90;;;;;;5034526;28;20453;-66
2021/04/07 08:23:55;;;;;;;11.93;11.27;;;2.40;99.90;;;;;;5034030;28;20484;-66
2021/04/07 08:26:24;;;;;;;5.50;5.10;;;2.40;99.90;;;;;;5034377;28;20420;-65
2021/04/07 08:28:54;;;;;;;7.13;6.50;;;2.30;99.90;;;;;;5034580;28;20966;-66
2021/04/07 08:31:21;;;;;;;7.30;5.83;;;2.40;99.90;;;;;;5034265;28;20818;-66
2021/04/07 08:33:49;;;;;;;6.67;5.77;;;2.30;99.90;;;;;;5033904;28;21053;-66
2021/04/07 08:36:17;;;;;;;8.47;5.97;;;2.30;99.90;;;;;;5034303;28;20424;-66
2021/04/07 08:38:43;;;;;;;7.10;5.93;;;2.30;99.90;;;;;;5034696;28;20457;-66
2021/04/07 08:41:11;;;;;;;5.57;5.20;;;2.40;99.90;;;;;;5034547;28;21008;-65
2021/04/07 08:43:38;;;;;;;6.47;5.97;;;2.50;99.90;;;;;;5033714;28;20452;-66
2021/04/07 08:46:14;;;;;;;8.80;6.30;;;2.40;99.90;;;;;;5034732;28;20423;-66
2021/04/07 08:48:40;;;;;;;7.07;6.40;;;2.30;99.90;;;;;;5034432;28;20546;-67
2021/04/07 08:51:08;;;;;;;16.67;8.70;;;2.40;99.90;;;;;;5033938;28;20441;-66
2021/04/07 08:53:39;;;;;;;6.97;6.57;;;2.50;99.90;;;;;;5033352;28;21004;-66
2021/04/07 08:56:07;;;;;;;8.03;7.30;;;2.60;99.90;;;;;;5033758;28;20479;-66
2021/04/07 08:58:34;;;;;;;7.70;7.30;;;2.60;99.90;;;;;;5033522;28;20522;-67
2021/04/07 09:01:00;;;;;;;7.80;7.40;;;2.60;99.90;;;;;;5033656;28;20456;-66
2021/04/07 09:03:31;;;;;;;11.97;11.23;;;2.60;99.90;;;;;;5033153;28;20507;-66
2021/04/07 09:05:58;;;;;;;13.43;12.80;;;2.50;99.90;;;;;;5033563;28;20449;-66
2021/04/07 09:08:26;;;;;;;14.33;13.13;;;2.50;99.90;;;;;;5033367;28;20523;-66
2021/04/07 09:10:54;;;;;;;12.80;12.20;;;2.60;99.90;;;;;;5033410;28;20503;-66
2021/04/07 09:13:22;;;;;;;13.40;12.80;;;2.70;99.90;;;;;;5033171;28;20995;-66
2021/04/07 09:15:52;;;;;;;16.13;14.90;;;2.70;99.90;;;;;;5033354;28;20445;-67
2021/04/07 09:18:32;;;;;;;14.13;13.03;;;2.80;99.90;;;;;;5033181;28;20465;-66
2021/04/07 09:21:00;;;;;;;6.20;5.03;;;2.90;99.90;;;;;;5033182;28;20440;-66
2021/04/07 09:23:29;;;;;;;12.40;11.70;;;2.90;99.90;;;;;;5032872;28;20451;-65
2021/04/07 09:25:57;;;;;;;13.03;12.33;;;3.00;99.90;;;;;;5033172;28;20449;-66
2021/04/07 09:28:34;;;;;;;15.23;14.10;;;3.10;99.90;;;;;;5033003;28;20465;-65
2021/04/07 09:31:10;;;;;;;14.17;13.40;;;3.20;99.90;;;;;;5032802;28;20455;-65
2021/04/07 09:33:38;;;;;;;14.90;14.00;;;3.10;99.90;;;;;;5032662;28;20437;-65
2021/04/07 09:36:08;;;;;;;13.57;12.87;;;3.00;99.90;;;;;;5032933;28;20453;-65
2021/04/07 09:38:39;;;;;;;14.60;13.83;;;3.00;99.90;;;;;;5032856;28;20439;-66
2021/04/07 09:41:10;;;;;;;15.30;14.20;;;2.70;99.90;;;;;;5032827;28;20954;-65
2021/04/07 09:43:37;;;;;;;15.33;14.20;;;2.60;99.90;;;;;;5032564;28;20488;-66
2021/04/07 09:46:04;;;;;;;15.07;14.10;;;2.70;99.90;;;;;;5032853;28;20456;-66
2021/04/07 09:48:45;;;;;;;13.40;12.53;;;2.90;99.90;;;;;;5032602;28;20539;-66
2021/04/07 09:51:26;;;;;;;14.20;13.27;;;3.10;99.90;;;;;;5032547;28;20449;-64
2021/04/07 09:53:55;;;;;;;14.80;13.70;;;3.00;99.90;;;;;;5032480;28;20501;-65
2021/04/07 09:56:21;;;;;;;11.23;10.53;;;3.10;99.90;;;;;;5032536;28;20515;-65
2021/04/07 09:58:51;;;;;;;11.73;11.00;;;3.10;99.90;;;;;;5032453;28;20469;-66
2021/04/07 10:01:18;;;;;;;12.10;11.30;;;3.20;99.90;;;;;;5032505;28;20463;-65
2021/04/07 10:03:51;;;;;;;12.77;11.87;;;3.20;99.90;;;;;;5031858;28;20487;-65
2021/04/07 10:06:19;;;;;;;13.17;12.27;;;3.20;99.90;;;;;;5032469;28;20452;-65
2021/04/07 10:08:46;;;;;;;12.40;11.23;;;3.30;99.90;;;;;;5032257;28;20466;-65
2021/04/07 10:11:12;;;;;;;13.40;12.20;;;3.30;99.90;;;;;;5032405;28;20449;-65
2021/04/07 10:13:38;;;;;;;11.63;10.67;;;3.40;99.90;;;;;;5032062;28;20807;-64
2021/04/07 10:16:14;;;;;;;12.80;11.70;;;3.40;99.90;;;;;;5032038;28;20444;-64
2021/04/07 10:18:41;;;;;;;11.63;10.83;;;3.70;99.90;;;;;;5031941;28;20471;-64
2021/04/07 10:21:15;;;;;;;12.63;11.47;;;4.40;99.90;;;;;;5032064;28;20503;-65
2021/04/07 10:23:42;;;;;;;12.67;11.53;;;4.70;99.90;;;;;;5031651;28;20494;-64
2021/04/07 10:26:09;;;;;;;12.27;11.57;;;4.70;99.90;;;;;;5031891;28;20449;-65
2021/04/07 10:28:36;;;;;;;12.60;11.90;;;4.60;99.90;;;;;;5031862;28;20472;-65
2021/04/07 10:31:09;;;;;;;12.53;12.03;;;4.70;99.90;;;;;;5031915;28;20444;-64
2021/04/07 10:33:36;;;;;;;13.50;12.37;;;4.80;99.90;;;;;;5031604;28;20566;-65
2021/04/07 10:36:06;;;;;;;13.33;12.67;;;5.30;99.90;;;;;;5032005;28;20841;-65
2021/04/07 10:38:34;;;;;;;14.03;12.73;;;5.20;99.90;;;;;;5031545;28;20457;-66
2021/04/07 10:41:03;;;;;;;15.93;14.73;;;4.90;99.90;;;;;;5031768;28;20539;-65
2021/04/07 10:43:31;;;;;;;12.50;11.90;;;4.40;99.90;;;;;;5031432;28;20485;-65
2021/04/07 10:45:58;;;;;;;12.97;11.73;;;4.20;99.90;;;;;;5031831;28;20441;-66
2021/04/07 10:48:25;;;;;;;17.43;14.70;;;4.00;99.90;;;;;;5031494;28;20485;-66
2021/04/07 10:50:51;;;;;;;14.07;12.67;;;4.00;99.90;;;;;;5031505;28;20441;-66
2021/04/07 10:53:28;;;;;;;11.53;10.93;;;4.20;99.90;;;;;;5031424;28;20499;-65
2021/04/07 10:55:54;;;;;;;13.93;12.43;;;4.20;99.90;;;;;;5031565;28;20444;-65
2021/04/07 10:58:26;;;;;;;12.77;11.67;;;4.30;99.90;;;;;;5031477;28;20446;-65
2021/04/07 11:00:53;;;;;;;19.60;11.20;;;4.50;99.90;;;;;;5031583;28;20449;-65
2021/04/07 11:03:30;;;;;;;12.80;11.77;;;5.10;99.90;;;;;;5031087;28;20997;-65
2021/04/07 11:05:57;;;;;;;13.30;12.20;;;5.20;99.90;;;;;;5031433;28;20953;-65
2021/04/07 11:08:34;;;;;;;13.17;11.93;;;5.10;99.90;;;;;;5031245;28;20465;-65
2021/04/07 11:11:00;;;;;;;13.87;12.23;;;5.20;99.90;;;;;;5031450;28;20487;-65
2021/04/07 11:13:27;;;;;;;13.97;12.07;;;5.30;99.90;;;;;;5031165;28;20445;-65
2021/04/07 11:15:54;;;;;;;15.10;13.57;;;5.40;99.90;;;;;;5031464;28;20810;-65
2021/04/07 11:18:28;;;;;;;16.10;13.40;;;5.90;99.90;;;;;;5035469;28;20742;-65
2021/04/07 11:20:54;;;;;;;14.73;13.60;;;6.60;99.90;;;;;;5035751;28;20452;-65
2021/04/07 11:23:20;;;;;;;15.67;14.50;;;7.50;99.90;;;;;;5035405;28;20492;-66
2021/04/07 11:25:48;;;;;;;19.13;17.73;;;8.80;99.90;;;;;;5035441;28;20441;-65
2021/04/07 11:28:18;;;;;;;16.83;15.57;;;8.70;99.90;;;;;;5035513;28;20496;-66
2021/04/07 11:30:58;;;;;;;19.23;17.50;;;8.50;99.90;;;;;;5035248;28;20441;-65
2021/04/07 11:33:28;;;;;;;20.07;18.20;;;8.50;99.90;;;;;;5035164;28;20946;-66
2021/04/07 11:36:00;;;;;;;20.80;19.00;;;9.10;99.90;;;;;;5035366;28;20934;-66
2021/04/07 11:38:28;;;;;;;24.03;22.07;;;10.20;99.90;;;;;;5035158;28;20483;-65
2021/04/07 11:41:41;;;;;;;20.47;18.80;;;10.00;99.90;;;;;;5035088;28;20448;-65
2021/04/07 11:46:29;;;;;;;26.37;24.23;;;11.40;99.90;;;;;;5034745;28;20483;-63
2021/04/07 11:48:55;;;;;;;23.17;21.20;;;12.70;99.90;;;;;;5034887;28;20472;-63
2021/04/07 11:51:21;;;;;;;21.93;20.53;;;12.20;99.90;;;;;;5034915;28;20443;-66
2021/04/07 11:53:48;;;;;;;22.47;20.97;;;12.70;98.40;;;;;;5034514;28;20942;-65
2021/04/07 11:56:15;;;;;;;22.73;21.23;;;11.40;99.90;;;;;;5034703;28;20437;-65
2021/04/07 11:58:41;;;;;;;21.70;20.00;;;10.90;99.90;;;;;;5034678;28;20464;-64
2021/04/07 12:01:08;;;;;;;20.17;18.87;;;11.20;99.90;;;;;;5034517;28;20944;-64
2021/04/07 12:03:36;;;;;;;21.33;19.90;;;11.10;99.90;;;;;;5034362;28;20477;-65
2021/04/07 12:06:05;;;;;;;21.10;19.30;;;10.40;99.90;;;;;;5034969;28;20866;-66
2021/04/07 12:08:31;;;;;;;20.70;19.00;;;9.70;99.90;;;;;;5035182;28;20465;-65
2021/04/07 12:10:59;;;;;;;20.83;19.03;;;9.00;99.90;;;;;;5034751;28;20451;-65
2021/04/07 12:13:25;;;;;;;22.30;20.27;;;8.50;99.90;;;;;;5034445;28;21265;-65
2021/04/07 12:15:51;;;;;;;19.13;17.57;;;8.00;99.90;;;;;;5034378;28;20441;-65
2021/04/07 12:18:18;;;;;;;19.83;18.53;;;7.10;99.90;;;;;;5034559;28;20540;-65
2021/04/07 12:20:45;;;;;;;18.80;17.47;;;6.90;99.90;;;;;;5034584;28;20504;-65
2021/04/07 12:23:11;;;;;;;18.23;16.93;;;7.00;99.90;;;;;;5034289;28;20480;-65
2021/04/07 12:25:37;;;;;;;16.63;15.40;;;7.40;99.90;;;;;;5034302;28;20449;-64
2021/04/07 12:28:04;;;;;;;21.47;19.37;;;8.00;99.90;;;;;;5034077;28;20494;-66
2021/04/07 12:30:32;;;;;;;22.33;20.50;;;8.50;99.90;;;;;;5034125;28;20448;-65
2021/04/07 12:32:58;;;;;;;20.73;19.10;;;8.40;99.90;;;;;;5034250;28;20502;-66
2021/04/07 12:35:24;;;;;;;20.23;18.50;;;8.50;99.90;;;;;;5034380;28;20788;-65
2021/04/07 12:37:51;;;;;;;20.03;17.90;;;8.20;99.90;;;;;;5033988;28;20469;-65
2021/04/07 12:40:18;;;;;;;20.40;18.83;;;7.90;99.90;;;;;;5034336;28;20459;-65
2021/04/07 12:42:44;;;;;;;19.93;17.90;;;7.60;99.90;;;;;;5033758;28;20484;-65